Emmagracht — PDYX — position and weather

sailwx.info

Track history (hours):
 
Tides and Currents Weather Stations Pressure Air Temp Water Temp Dewpoint Dewpoint Depression Visibility Wind Speed Wind Dir Waves Ship Positions

Emmagracht

Last reported at 2015-Mar-28 09:33 UTC. Time now 2015-Mar-30 05:54 UTC.
Position N 59°34' E 021°22'.

Length 136 m; beam 19 m; draft 9 m.

Type: Cargo ship. MMSI: 246308000.

Date/timePositionNaut miles runAvg speedWind from/ knotsBaromVisibWave heightAir tempDewpointWater temp
2015-Mar-28 09:33N 59°34' E 021°22'1111.2
2015-Mar-28 08:33N 59°33' E 021°44'1111.3
2015-Mar-28 07:33N 59°33' E 022°06'3311.1
2015-Mar-28 04:33N 59°38' E 023°12'1111.3
2015-Mar-28 03:33N 59°41' E 023°33'1111.5
2015-Mar-28 02:33N 59°43' E 023°55'1711.7
2015-Mar-28 01:06N 59°48' E 024°28'611.8
2015-Mar-28 00:34N 59°49' E 024°40'3911.4
2015-Mar-27 21:08N 59°59' E 025°55'911.4
2015-Mar-27 20:20N 60°05' E 026°09'911.5
2015-Mar-27 19:34N 60°12' E 026°22'1010.2
2015-Mar-27 18:33N 60°19' E 026°36'1111.2
2015-Mar-27 17:32N 60°25' E 026°55'0 0.0
2015-Mar-27 16:32N 60°25' E 026°55'0 0.0
2015-Mar-27 15:32N 60°25' E 026°55'0 0.0
2015-Mar-27 14:32N 60°25' E 026°55'0 0.0
2015-Mar-27 13:32N 60°25' E 026°55'0 0.0
2015-Mar-27 12:32N 60°25' E 026°55'0 0.0
2015-Mar-27 11:32N 60°25' E 026°55'0 0.0
2015-Mar-27 10:32N 60°25' E 026°55'0 0.0
2015-Mar-27 09:32N 60°25' E 026°55'0 0.0
2015-Mar-27 08:32N 60°25' E 026°55'0 0.0
2015-Mar-27 07:32N 60°25' E 026°55'0 0.0
2015-Mar-27 06:32N 60°25' E 026°55'0 0.0
2015-Mar-27 05:32N 60°25' E 026°55'0 0.0
2015-Mar-27 04:32N 60°25' E 026°55'0 0.0
2015-Mar-27 03:32N 60°25' E 026°55'0 0.0
2015-Mar-27 02:32N 60°25' E 026°55'0 0.0
2015-Mar-27 01:32N 60°25' E 026°55'0 0.0
2015-Mar-27 00:32N 60°25' E 026°55'0 0.0
2015-Mar-26 23:32N 60°25' E 026°55'0 0.0
2015-Mar-26 22:32N 60°25' E 026°55'0 0.0
2015-Mar-26 21:32N 60°25' E 026°55'1 1.3
2015-Mar-26 20:33N 60°24' E 026°54'7 7.4
2015-Mar-26 19:34N 60°25' E 027°09'7 7.1
2015-Mar-26 18:33N 60°32' E 027°10'0 0.0
2015-Mar-26 17:33N 60°32' E 027°10'0 0.0
2015-Mar-26 16:30N 60°32' E 027°10'0 0.0
2015-Mar-26 15:33N 60°32' E 027°10'0 0.0
2015-Mar-26 14:27N 60°32' E 027°10'0 0.0
2015-Mar-26 13:27N 60°32' E 027°10'0 0.0
2015-Mar-26 12:15N 60°32' E 027°10'0 0.0
2015-Mar-26 11:33N 60°32' E 027°10'0 0.0
2015-Mar-26 10:33N 60°32' E 027°10'0 0.0
2015-Mar-26 09:33N 60°32' E 027°10'0 0.0
2015-Mar-26 08:33N 60°32' E 027°10'0 0.0
2015-Mar-26 07:21N 60°32' E 027°10'0 0.0
2015-Mar-26 06:33N 60°32' E 027°10'0 0.0
2015-Mar-26 05:33N 60°32' E 027°10'0 0.0
2015-Mar-26 04:33N 60°32' E 027°10'0 0.0
2015-Mar-26 03:33N 60°32' E 027°10'0 0.0
2015-Mar-26 02:33N 60°32' E 027°10'0 0.0
2015-Mar-26 01:33N 60°32' E 027°10'0 0.0
2015-Mar-26 00:33N 60°32' E 027°10'0 0.0
2015-Mar-25 23:33N 60°32' E 027°10'0 0.0
2015-Mar-25 22:27N 60°32' E 027°10'0 0.0
2015-Mar-25 21:33N 60°32' E 027°10'0 0.0
2015-Mar-25 20:33N 60°32' E 027°10'0 0.0
2015-Mar-25 19:27N 60°32' E 027°10'0 0.0
2015-Mar-25 18:32N 60°32' E 027°10'0 0.0
2015-Mar-25 17:32N 60°32' E 027°10'0 0.0
2015-Mar-25 16:32N 60°32' E 027°10'0 0.0
2015-Mar-25 15:32N 60°32' E 027°10'0 0.0
2015-Mar-25 14:32N 60°32' E 027°10'2 1.9
2015-Mar-25 13:32N 60°30' E 027°09'9 8.9
2015-Mar-25 12:34N 60°22' E 027°00'4 4.0
2015-Mar-25 11:33N 60°25' E 026°55'0 0.0
2015-Mar-25 10:33N 60°25' E 026°55'0 0.0
2015-Mar-25 09:33N 60°25' E 026°55'0 0.0
2015-Mar-25 08:33N 60°25' E 026°55'0 0.0
2015-Mar-25 07:33N 60°25' E 026°55'0 0.0
2015-Mar-25 06:33N 60°25' E 026°55'0 0.0
2015-Mar-25 05:33N 60°25' E 026°55'0 0.0
2015-Mar-25 04:33N 60°25' E 026°55'0 0.0
2015-Mar-25 03:33N 60°25' E 026°55'0 0.0
2015-Mar-25 02:33N 60°25' E 026°55'0 0.0
2015-Mar-25 01:33N 60°25' E 026°55'0 0.0
2015-Mar-25 00:33N 60°25' E 026°55'0 0.0
2015-Mar-24 23:33N 60°25' E 026°55'0 0.0
2015-Mar-24 22:33N 60°25' E 026°55'0 0.0
2015-Mar-24 21:33N 60°25' E 026°55'0 0.0
2015-Mar-24 20:33N 60°25' E 026°55'0 0.0
2015-Mar-24 19:33N 60°25' E 026°55'0 0.0
2015-Mar-24 18:33N 60°25' E 026°55'0 0.0
2015-Mar-24 17:33N 60°25' E 026°55'0 0.0
2015-Mar-24 16:33N 60°25' E 026°55'0 0.0
2015-Mar-24 15:33N 60°25' E 026°55'0 0.0
2015-Mar-24 14:33N 60°25' E 026°55'0 0.0
2015-Mar-24 13:33N 60°25' E 026°55'0 0.0
2015-Mar-24 12:33N 60°25' E 026°55'0 0.0
2015-Mar-24 11:32N 60°25' E 026°55'0 0.0
2015-Mar-24 10:32N 60°25' E 026°55'0 0.0
2015-Mar-24 09:32N 60°25' E 026°55'0 0.0
2015-Mar-24 08:32N 60°25' E 026°55'0 0.0
2015-Mar-24 07:32N 60°25' E 026°55'0 0.0
2015-Mar-24 06:32N 60°25' E 026°55'0 0.0
2015-Mar-24 05:32N 60°25' E 026°55'0 0.0
2015-Mar-24 04:32N 60°25' E 026°55'0 0.0
2015-Mar-24 03:32N 60°25' E 026°55'0 0.0
2015-Mar-24 02:32N 60°25' E 026°55'5 4.8
2015-Mar-24 01:34N 60°23' E 026°47'1413.8
2015-Mar-24 00:33N 60°14' E 026°25'1212.0
2015-Mar-23 23:33N 60°04' E 026°11'4013.5
2015-Mar-23 20:33N 59°46' E 024°59'1514.8
2015-Mar-23 19:33N 59°43' E 024°30'3214.8
2015-Mar-23 17:24N 59°35' E 023°29'35014.6
2015-Mar-22 17:25N 55°39' E 015°27'1314.9
2015-Mar-22 16:33N 55°32' E 015°07'1515.0
2015-Mar-22 15:33N 55°25' E 014°44'1514.8
2015-Mar-22 14:33N 55°15' E 014°25'1414.1
2015-Mar-22 13:33N 55°11' E 014°01'1514.7
2015-Mar-22 12:33N 55°12' E 013°36'1514.7
2015-Mar-22 11:32N 55°14' E 013°10'1414.4
2015-Mar-22 10:33N 55°16' E 012°45'1212.3
2015-Mar-22 09:33N 55°28' E 012°41'1514.5
2015-Mar-22 08:33N 55°43' E 012°41'1413.6
2015-Mar-22 07:33N 55°57' E 012°38'1111.5
2015-Mar-22 06:33N 56°07' E 012°30'1413.9
2015-Mar-22 05:33N 56°15' E 012°10'1713.7
2015-Mar-22 04:18N 56°31' E 011°58'1013.6
2015-Mar-22 03:33N 56°41' E 011°54'1313.3
2015-Mar-22 02:33N 56°54' E 011°46'1313.4
2015-Mar-22 01:33N 57°06' E 011°38'1212.0
2015-Mar-22 00:33N 57°18' E 011°36'1313.4
2015-Mar-21 23:33N 57°32' E 011°35'5 4.6
2015-Mar-21 22:33N 57°35' E 011°41'0 0.1
2015-Mar-21 21:33N 57°35' E 011°41'0 0.0
2015-Mar-21 20:33N 57°35' E 011°41'0 0.0
2015-Mar-21 19:33N 57°35' E 011°41'5 5.3
2015-Mar-21 18:33N 57°34' E 011°31'1212.2
2015-Mar-21 17:33N 57°35' E 011°09'1413.5
2015-Mar-21 16:33N 57°44' E 010°50'1612.1
2015-Mar-21 15:12N 57°47' E 010°20'41612.0
2015-Mar-20 04:33N 58°42' W 002°44'1211.7
2015-Mar-20 03:33N 58°43' W 003°07'9 9.0
2015-Mar-20 02:33N 58°43' W 003°24'1212.4
2015-Mar-20 01:33N 58°42' W 003°48'1414.0
2015-Mar-20 00:33N 58°42' W 004°15'1414.0
2015-Mar-19 23:33N 58°41' W 004°42'2713.2
2015-Mar-19 21:32N 58°26' W 005°23'2115.3
2015-Mar-19 20:11N 58°08' W 005°44'1015.3
2015-Mar-19 19:31N 57°59' W 005°54'13013.9
2015-Mar-19 10:07N 55°55' W 007°04'813.6
2015-Mar-19 09:33N 55°49' W 006°56'1312.9
2015-Mar-19 08:33N 55°40' W 006°40'1212.1
2015-Mar-19 07:33N 55°32' W 006°24'1111.5
2015-Mar-19 06:33N 55°25' W 006°07'1111.2
2015-Mar-19 05:33N 55°17' W 005°54'1312.9
2015-Mar-19 04:33N 55°06' W 005°42'1414.3
2015-Mar-19 03:33N 54°54' W 005°29'1515.3
2015-Mar-19 02:33N 54°41' W 005°14'1515.3
2015-Mar-19 01:33N 54°26' W 005°06'1514.7
2015-Mar-19 00:33N 54°12' W 005°00'1514.7
2015-Mar-18 23:34N 53°58' W 004°51'1614.7
2015-Mar-18 22:28N 53°50' W 004°28'3913.3
2015-Mar-18 19:34N 53°33' W 003°29'8 8.2
2015-Mar-18 18:33N 53°31' W 003°15'9 9.6
2015-Mar-18 17:33N 53°27' W 003°01'1 0.9
2015-Mar-18 16:34N 53°28' W 003°02'0 0.1
2015-Mar-18 15:29N 53°27' W 003°02'0 0.0
2015-Mar-18 14:29N 53°27' W 003°02'0 0.0
2015-Mar-18 13:29N 53°27' W 003°02'0 0.0
2015-Mar-18 12:29N 53°27' W 003°02'0 0.0
2015-Mar-18 11:29N 53°27' W 003°02'0 0.0
2015-Mar-18 10:29N 53°28' W 003°02'  
Track history (hours):
 
Tides and Currents Weather Stations Pressure Air Temp Water Temp Dewpoint Dewpoint Depression Visibility Wind Speed Wind Dir Waves Ship Positions

Emmagracht

Last reported at 2015-Mar-28 09:33 UTC. Time now 2015-Mar-30 05:54 UTC.
Position N 59°34' E 021°22'.

Length 136 m; beam 19 m; draft 9 m.

Type: Cargo ship. MMSI: 246308000.

Date/timePositionNaut miles runAvg speedWind from/ knotsBaromVisibWave heightAir tempDewpointWater temp
2015-Mar-28 09:33N 59°34' E 021°22'1111.2
2015-Mar-28 08:33N 59°33' E 021°44'1111.3
2015-Mar-28 07:33N 59°33' E 022°06'3311.1
2015-Mar-28 04:33N 59°38' E 023°12'1111.3
2015-Mar-28 03:33N 59°41' E 023°33'1111.5
2015-Mar-28 02:33N 59°43' E 023°55'1711.7
2015-Mar-28 01:06N 59°48' E 024°28'611.8
2015-Mar-28 00:34N 59°49' E 024°40'3911.4
2015-Mar-27 21:08N 59°59' E 025°55'911.4
2015-Mar-27 20:20N 60°05' E 026°09'911.5
2015-Mar-27 19:34N 60°12' E 026°22'1010.2
2015-Mar-27 18:33N 60°19' E 026°36'1111.2
2015-Mar-27 17:32N 60°25' E 026°55'0 0.0
2015-Mar-27 16:32N 60°25' E 026°55'0 0.0
2015-Mar-27 15:32N 60°25' E 026°55'0 0.0
2015-Mar-27 14:32N 60°25' E 026°55'0 0.0
2015-Mar-27 13:32N 60°25' E 026°55'0 0.0
2015-Mar-27 12:32N 60°25' E 026°55'0 0.0
2015-Mar-27 11:32N 60°25' E 026°55'0 0.0
2015-Mar-27 10:32N 60°25' E 026°55'0 0.0
2015-Mar-27 09:32N 60°25' E 026°55'0 0.0
2015-Mar-27 08:32N 60°25' E 026°55'0 0.0
2015-Mar-27 07:32N 60°25' E 026°55'0 0.0
2015-Mar-27 06:32N 60°25' E 026°55'0 0.0
2015-Mar-27 05:32N 60°25' E 026°55'0 0.0
2015-Mar-27 04:32N 60°25' E 026°55'0 0.0
2015-Mar-27 03:32N 60°25' E 026°55'0 0.0
2015-Mar-27 02:32N 60°25' E 026°55'0 0.0
2015-Mar-27 01:32N 60°25' E 026°55'0 0.0
2015-Mar-27 00:32N 60°25' E 026°55'0 0.0
2015-Mar-26 23:32N 60°25' E 026°55'0 0.0
2015-Mar-26 22:32N 60°25' E 026°55'0 0.0
2015-Mar-26 21:32N 60°25' E 026°55'1 1.3
2015-Mar-26 20:33N 60°24' E 026°54'7 7.4
2015-Mar-26 19:34N 60°25' E 027°09'7 7.1
2015-Mar-26 18:33N 60°32' E 027°10'0 0.0
2015-Mar-26 17:33N 60°32' E 027°10'0 0.0
2015-Mar-26 16:30N 60°32' E 027°10'0 0.0
2015-Mar-26 15:33N 60°32' E 027°10'0 0.0
2015-Mar-26 14:27N 60°32' E 027°10'0 0.0
2015-Mar-26 13:27N 60°32' E 027°10'0 0.0
2015-Mar-26 12:15N 60°32' E 027°10'0 0.0
2015-Mar-26 11:33N 60°32' E 027°10'0 0.0
2015-Mar-26 10:33N 60°32' E 027°10'0 0.0
2015-Mar-26 09:33N 60°32' E 027°10'0 0.0
2015-Mar-26 08:33N 60°32' E 027°10'0 0.0
2015-Mar-26 07:21N 60°32' E 027°10'0 0.0
2015-Mar-26 06:33N 60°32' E 027°10'0 0.0
2015-Mar-26 05:33N 60°32' E 027°10'0 0.0
2015-Mar-26 04:33N 60°32' E 027°10'0 0.0
2015-Mar-26 03:33N 60°32' E 027°10'0 0.0
2015-Mar-26 02:33N 60°32' E 027°10'0 0.0
2015-Mar-26 01:33N 60°32' E 027°10'0 0.0
2015-Mar-26 00:33N 60°32' E 027°10'0 0.0
2015-Mar-25 23:33N 60°32' E 027°10'0 0.0
2015-Mar-25 22:27N 60°32' E 027°10'0 0.0
2015-Mar-25 21:33N 60°32' E 027°10'0 0.0
2015-Mar-25 20:33N 60°32' E 027°10'0 0.0
2015-Mar-25 19:27N 60°32' E 027°10'0 0.0
2015-Mar-25 18:32N 60°32' E 027°10'0 0.0
2015-Mar-25 17:32N 60°32' E 027°10'0 0.0
2015-Mar-25 16:32N 60°32' E 027°10'0 0.0
2015-Mar-25 15:32N 60°32' E 027°10'0 0.0
2015-Mar-25 14:32N 60°32' E 027°10'2 1.9
2015-Mar-25 13:32N 60°30' E 027°09'9 8.9
2015-Mar-25 12:34N 60°22' E 027°00'4 4.0
2015-Mar-25 11:33N 60°25' E 026°55'0 0.0
2015-Mar-25 10:33N 60°25' E 026°55'0 0.0
2015-Mar-25 09:33N 60°25' E 026°55'0 0.0
2015-Mar-25 08:33N 60°25' E 026°55'0 0.0
2015-Mar-25 07:33N 60°25' E 026°55'0 0.0
2015-Mar-25 06:33N 60°25' E 026°55'0 0.0
2015-Mar-25 05:33N 60°25' E 026°55'0 0.0
2015-Mar-25 04:33N 60°25' E 026°55'0 0.0
2015-Mar-25 03:33N 60°25' E 026°55'0 0.0
2015-Mar-25 02:33N 60°25' E 026°55'0 0.0
2015-Mar-25 01:33N 60°25' E 026°55'0 0.0
2015-Mar-25 00:33N 60°25' E 026°55'0 0.0
2015-Mar-24 23:33N 60°25' E 026°55'0 0.0
2015-Mar-24 22:33N 60°25' E 026°55'0 0.0
2015-Mar-24 21:33N 60°25' E 026°55'0 0.0
2015-Mar-24 20:33N 60°25' E 026°55'0 0.0
2015-Mar-24 19:33N 60°25' E 026°55'0 0.0
2015-Mar-24 18:33N 60°25' E 026°55'0 0.0
2015-Mar-24 17:33N 60°25' E 026°55'0 0.0
2015-Mar-24 16:33N 60°25' E 026°55'0 0.0
2015-Mar-24 15:33N 60°25' E 026°55'0 0.0
2015-Mar-24 14:33N 60°25' E 026°55'0 0.0
2015-Mar-24 13:33N 60°25' E 026°55'0 0.0
2015-Mar-24 12:33N 60°25' E 026°55'0 0.0
2015-Mar-24 11:32N 60°25' E 026°55'0 0.0
2015-Mar-24 10:32N 60°25' E 026°55'0 0.0
2015-Mar-24 09:32N 60°25' E 026°55'0 0.0
2015-Mar-24 08:32N 60°25' E 026°55'0 0.0
2015-Mar-24 07:32N 60°25' E 026°55'0 0.0
2015-Mar-24 06:32N 60°25' E 026°55'0 0.0
2015-Mar-24 05:32N 60°25' E 026°55'0 0.0
2015-Mar-24 04:32N 60°25' E 026°55'0 0.0
2015-Mar-24 03:32N 60°25' E 026°55'0 0.0
2015-Mar-24 02:32N 60°25' E 026°55'5 4.8
2015-Mar-24 01:34N 60°23' E 026°47'1413.8
2015-Mar-24 00:33N 60°14' E 026°25'1212.0
2015-Mar-23 23:33N 60°04' E 026°11'4013.5
2015-Mar-23 20:33N 59°46' E 024°59'1514.8
2015-Mar-23 19:33N 59°43' E 024°30'3214.8
2015-Mar-23 17:24N 59°35' E 023°29'35014.6
2015-Mar-22 17:25N 55°39' E 015°27'1314.9
2015-Mar-22 16:33N 55°32' E 015°07'1515.0
2015-Mar-22 15:33N 55°25' E 014°44'1514.8
2015-Mar-22 14:33N 55°15' E 014°25'1414.1
2015-Mar-22 13:33N 55°11' E 014°01'1514.7
2015-Mar-22 12:33N 55°12' E 013°36'1514.7
2015-Mar-22 11:32N 55°14' E 013°10'1414.4
2015-Mar-22 10:33N 55°16' E 012°45'1212.3
2015-Mar-22 09:33N 55°28' E 012°41'1514.5
2015-Mar-22 08:33N 55°43' E 012°41'1413.6
2015-Mar-22 07:33N 55°57' E 012°38'1111.5
2015-Mar-22 06:33N 56°07' E 012°30'1413.9
2015-Mar-22 05:33N 56°15' E 012°10'1713.7
2015-Mar-22 04:18N 56°31' E 011°58'1013.6
2015-Mar-22 03:33N 56°41' E 011°54'1313.3
2015-Mar-22 02:33N 56°54' E 011°46'1313.4
2015-Mar-22 01:33N 57°06' E 011°38'1212.0
2015-Mar-22 00:33N 57°18' E 011°36'1313.4
2015-Mar-21 23:33N 57°32' E 011°35'5 4.6
2015-Mar-21 22:33N 57°35' E 011°41'0 0.1
2015-Mar-21 21:33N 57°35' E 011°41'0 0.0
2015-Mar-21 20:33N 57°35' E 011°41'0 0.0
2015-Mar-21 19:33N 57°35' E 011°41'5 5.3
2015-Mar-21 18:33N 57°34' E 011°31'1212.2
2015-Mar-21 17:33N 57°35' E 011°09'1413.5
2015-Mar-21 16:33N 57°44' E 010°50'1612.1
2015-Mar-21 15:12N 57°47' E 010°20'41612.0
2015-Mar-20 04:33N 58°42' W 002°44'1211.7
2015-Mar-20 03:33N 58°43' W 003°07'9 9.0
2015-Mar-20 02:33N 58°43' W 003°24'1212.4
2015-Mar-20 01:33N 58°42' W 003°48'1414.0
2015-Mar-20 00:33N 58°42' W 004°15'1414.0
2015-Mar-19 23:33N 58°41' W 004°42'2713.2
2015-Mar-19 21:32N 58°26' W 005°23'2115.3
2015-Mar-19 20:11N 58°08' W 005°44'1015.3
2015-Mar-19 19:31N 57°59' W 005°54'13013.9
2015-Mar-19 10:07N 55°55' W 007°04'813.6
2015-Mar-19 09:33N 55°49' W 006°56'1312.9
2015-Mar-19 08:33N 55°40' W 006°40'1212.1
2015-Mar-19 07:33N 55°32' W 006°24'1111.5
2015-Mar-19 06:33N 55°25' W 006°07'1111.2
2015-Mar-19 05:33N 55°17' W 005°54'1312.9
2015-Mar-19 04:33N 55°06' W 005°42'1414.3
2015-Mar-19 03:33N 54°54' W 005°29'1515.3
2015-Mar-19 02:33N 54°41' W 005°14'1515.3
2015-Mar-19 01:33N 54°26' W 005°06'1514.7
2015-Mar-19 00:33N 54°12' W 005°00'1514.7
2015-Mar-18 23:34N 53°58' W 004°51'1614.7
2015-Mar-18 22:28N 53°50' W 004°28'3913.3
2015-Mar-18 19:34N 53°33' W 003°29'8 8.2
2015-Mar-18 18:33N 53°31' W 003°15'9 9.6
2015-Mar-18 17:33N 53°27' W 003°01'1 0.9
2015-Mar-18 16:34N 53°28' W 003°02'0 0.1
2015-Mar-18 15:29N 53°27' W 003°02'0 0.0
2015-Mar-18 14:29N 53°27' W 003°02'0 0.0
2015-Mar-18 13:29N 53°27' W 003°02'0 0.0
2015-Mar-18 12:29N 53°27' W 003°02'0 0.0
2015-Mar-18 11:29N 53°27' W 003°02'0 0.0
2015-Mar-18 10:29N 53°28' W 003°02'  

Dump ship's entire track history